Latest Coastal Weather Observations for Weipa

IDQ60701

Issued at 6:41 pm EST Saturday 25 April 2015 (issued every 10 minutes, with the page automatically refreshed every 10 minutes)

About coastal observations | Map of coastal stations | Coastal observations for QLD | Marine services | Other Formats
Station Details ID: 027045 Name: WEIPA AERO Lat: -12.68 Lon: 141.92 Height: 17.96 m
Data from the previous 72 hours. | See also: Recent months at Weipa
Date/Time
EST
Temp

°C
Wind Pressure Rain
since 9am
mm
Weather Cloud Vis
km
Sea
Height
m
Swell
Dir
 
Speed
knots
Gust
knots
hPa Trend Height
m
Period
s
Dir
25/06:30pm 27.6 W 3 6 1009.2 - 0.0 - - 10 - - - -
25/06:00pm 28.1 W 4 8 1008.7 - 0.0 - - 10 - - - -
25/05:30pm 29.2 W 6 9 1008.7 - 0.0 - - 10 - - - -
25/05:00pm 30.2 WNW 8 11 1008.3 - 0.0 - Partly cloudy 10 - - - -
25/04:30pm 31.5 WSW 4 8 1007.9 - 0.0 - Partly cloudy 10 - - - -
25/04:00pm 31.2 WSW 5 8 1007.8 - 0.0 - - 10 - - - -
25/03:30pm 30.4 SW 3 5 1007.7 - 0.0 - Partly cloudy 10 - - - -
25/03:00pm 31.1 SSW 4 7 1007.8 - 0.0 - Mostly clear 10 - - - -
25/02:30pm 30.5 WSW 3 7 1008.3 - 0.0 - Partly cloudy 10 - - - -
25/02:00pm 31.0 W 4 7 1008.6 - 0.0 - Partly cloudy 10 - - - -
25/01:30pm 30.3 SSE 3 5 1009.0 - 0.0 - Partly cloudy 10 - - - -
25/01:00pm 31.2 NE 4 8 1009.4 - 0.0 - Partly cloudy 10 - - - -
25/12:30pm 31.4 E 4 9 1009.7 - 0.0 - Partly cloudy 10 - - - -
25/12:00pm 30.6 ESE 3 7 1009.9 - 0.0 - - 10 - - - -
25/11:30am 30.3 ESE 6 12 1010.7 - 0.0 - Partly cloudy 10 - - - -
25/11:00am 29.3 SSE 5 8 1011.1 - 0.0 - - 10 - - - -
25/10:30am 29.0 ESE 4 8 1011.5 - 0.0 - - 10 - - - -
25/10:00am 28.5 ESE 3 5 1011.6 - 0.0 - - 10 - - - -
25/09:30am 27.9 ESE 4 7 1011.6 - 0.0 - - 10 - - - -
25/09:00am 27.2 ESE 5 7 1011.2 - 0.0 - - 10 - - - -
25/08:30am 26.7 ESE 5 6 1011.1 - 0.0 - - 10 - - - -
25/08:00am 25.4 ESE 3 4 1010.9 - 0.0 - - 10 - - - -
25/07:30am 24.0 E 2 3 1010.6 - 0.0 - Partly cloudy 10 - - - -
25/07:00am 23.7 ESE 4 5 1010.2 - 0.0 - Cloudy 10 - - - -
25/06:30am 23.8 E 2 3 1010.1 - 0.0 - Cloudy 10 - - - -
25/06:00am 23.8 CALM 0 2 1009.7 - 0.0 - Cloudy 10 - - - -
25/05:30am 23.5 ESE 2 3 1009.7 - 0.0 - Partly cloudy 10 - - - -
25/05:00am 23.7 ESE 2 3 1009.5 - 0.0 - Partly cloudy 10 - - - -
25/04:30am 23.8 SE 3 4 1009.6 - 0.0 - Partly cloudy 10 - - - -
25/04:00am 23.8 E 2 3 1009.7 - 0.0 - Partly cloudy 10 - - - -
25/03:30am 23.9 ESE 2 2 1009.6 - 0.0 - Partly cloudy 10 - - - -
25/03:00am 24.1 E 2 4 1009.4 - 0.0 - Partly cloudy 10 - - - -
25/02:30am 24.4 E 2 3 1009.6 - 0.0 - - 10 - - - -
25/02:00am 24.6 ESE 3 4 1009.6 - 0.0 - Partly cloudy 10 - - - -
25/01:30am 25.0 SE 2 4 1009.8 - 0.0 - Cloudy 10 - - - -
25/01:00am 25.2 ESE 1 3 1009.9 - 0.0 - Partly cloudy 10 - - - -
25/12:30am 25.3 CALM 0 1 1010.2 - 0.0 - Partly cloudy 10 - - - -
25/12:00am 25.2 ENE 1 2 1010.1 - 0.0 - Cloudy 10 - - - -
 
Date/Time
EST
Temp

°C
Wind Pressure Rain
since 9am
mm
Weather Cloud Vis
km
Sea
Height
m
Swell
Dir
 
Speed
knots
Gust
knots
hPa Trend Height
m
Period
s
Dir
24/11:30pm 25.3 E 3 5 1010.2 - 0.0 - Partly cloudy 10 - - - -
24/11:00pm 25.1 E 5 6 1010.3 - 0.0 - Partly cloudy 10 - - - -
24/10:30pm 25.8 S 2 4 1010.1 - 0.0 - - 10 - - - -
24/10:00pm 26.0 SSW 2 4 1010.1 - 0.0 - - 10 - - - -
24/09:30pm 26.3 SSW 1 3 1010.2 - 0.0 - - 10 - - - -
24/09:00pm 26.3 SW 2 4 1009.9 - 0.0 - - 10 - - - -
24/08:30pm 26.7 S 2 3 1009.7 - 0.0 - - 10 - - - -
24/08:00pm 26.7 SW 2 5 1009.4 - 0.0 - Partly cloudy 10 - - - -
24/07:30pm 26.9 SW 2 4 1009.0 - 0.0 - Partly cloudy 10 - - - -
24/07:00pm 26.9 W 2 3 1008.6 - 0.0 - Partly cloudy 10 - - - -
24/06:30pm 27.5 WSW 2 5 1008.4 - 0.0 - - 10 - - - -
24/06:00pm 28.1 WSW 3 6 1008.2 - 0.0 - - 10 - - - -
24/05:30pm 28.8 W 4 8 1008.3 - 0.0 - - 10 - - - -
24/05:00pm 29.4 W 5 9 1007.9 - 0.0 - - 10 - - - -
24/04:30pm 30.3 W 5 9 1007.8 - 0.0 - - 10 - - - -
24/04:00pm 30.7 SW 4 7 1007.8 - 0.0 - - 10 - - - -
24/03:30pm 31.0 SW 3 6 1007.7 - 0.0 - Partly cloudy 10 - - - -
24/03:00pm 31.0 S 2 5 1007.7 - 0.0 - Partly cloudy 10 - - - -
24/02:30pm 30.2 S 3 4 1008.2 - 0.0 - Partly cloudy 10 - - - -
24/02:00pm 29.6 SSW 3 6 1008.6 - 0.0 - Partly cloudy 10 - - - -
24/01:30pm 29.5 SSW 3 9 1008.9 - 0.0 - Partly cloudy 10 - - - -
24/01:00pm 30.3 S 3 7 1009.3 - 0.0 - Partly cloudy 10 - - - -
24/12:30pm 29.4 W 2 5 1009.9 - 0.0 - Partly cloudy 10 - - - -
24/12:00pm 29.3 S 2 5 1010.2 - 0.0 - Mostly cloudy 10 - - - -
24/11:30am 29.6 E 3 8 1010.7 - 0.0 - - 10 - - - -
24/11:00am 29.0 SE 4 9 1011.1 - 0.0 - Partly cloudy 10 - - - -
24/10:30am 28.5 E 4 7 1011.4 - 0.0 - Partly cloudy 10 - - - -
24/10:00am 27.9 E 6 10 1011.4 - 0.0 - - 10 - - - -
24/09:30am 27.0 E 7 10 1011.3 - 0.0 - - 10 - - - -
24/09:00am 26.6 E 6 9 1011.0 - 0.0 - - 10 - - - -
24/08:30am 25.6 ESE 5 8 1010.8 - 0.0 - - 10 - - - -
24/08:00am 24.4 ESE 3 5 1010.6 - 0.0 - Partly cloudy 10 - - - -
24/07:30am 23.4 E 1 2 1010.5 - 0.0 - - 10 - - - -
24/07:00am 22.7 CALM 0 0 1010.2 - 0.0 - Partly cloudy 10 - - - -
24/06:30am 22.6 SE 1 2 1009.7 - 0.0 - Partly cloudy 10 - - - -
24/06:00am 23.0 ESE 2 2 1009.4 - 0.0 - - 10 - - - -
24/05:30am 22.9 CALM 0 1 1009.4 - 0.0 - - 10 - - - -
24/05:00am 23.5 E 2 3 1009.1 - 0.0 - - 10 - - - -
24/04:30am 23.7 E 3 3 1009.0 - 0.0 - - 10 - - - -
24/04:00am 24.0 E 3 4 1009.2 - 0.0 - - 10 - - - -
24/03:30am 24.3 E 3 4 1009.3 - 0.0 - Partly cloudy 10 - - - -
24/03:00am 24.3 NE 2 3 1009.3 - 0.0 - - 10 - - - -
24/02:30am 24.6 ENE 3 5 1009.7 - 0.0 - - 10 - - - -
24/02:00am 24.9 ENE 5 7 1009.7 - 0.0 - - 10 - - - -
24/01:30am 25.0 E 5 7 1010.0 - 0.0 - Partly cloudy 10 - - - -
24/01:00am 25.3 ENE 5 7 1010.2 - 0.0 - Partly cloudy 10 - - - -
24/12:30am 25.3 ENE 5 8 1010.5 - 0.0 - Partly cloudy 10 - - - -
24/12:00am 25.6 ENE 6 8 1010.3 - 0.0 - Cloudy 10 - - - -
 
Date/Time
EST
Temp

°C
Wind Pressure Rain
since 9am
mm
Weather Cloud Vis
km
Sea
Height
m
Swell
Dir
 
Speed
knots
Gust
knots
hPa Trend Height
m
Period
s
Dir
23/11:30pm 26.2 ENE 5 9 1010.4 - 0.0 - Partly cloudy 10 - - - -
23/11:00pm 26.8 E 3 5 1010.1 - 0.0 - Partly cloudy 10 - - - -
23/10:30pm 26.3 E 3 4 1010.1 - 0.0 - Partly cloudy 10 - - - -
23/10:00pm 26.1 ESE 3 4 1010.0 - 0.0 - Partly cloudy 10 - - - -
23/09:30pm 26.4 E 5 6 1010.0 - 0.0 - Partly cloudy 10 - - - -
23/09:00pm 27.0 S 2 5 1009.4 - 0.0 - Partly cloudy 10 - - - -
23/08:30pm 27.2 SW 3 6 1009.2 - 0.0 - Partly cloudy 10 - - - -
23/08:00pm 27.2 SSW 3 5 1008.9 - 0.0 - - 10 - - - -
23/07:30pm 27.3 WSW 3 5 1008.4 - 0.0 - - 10 - - - -
23/07:00pm 27.6 WSW 3 5 1008.0 - 0.0 - - 10 - - - -
23/06:30pm 28.0 WSW 3 5 1007.8 - 0.0 - - 10 - - - -
23/06:00pm 29.2 WSW 3 6 1007.3 - 0.0 - - 10 - - - -
23/05:30pm 29.6 W 5 9 1007.3 - 0.0 - - 10 - - - -
23/05:00pm 30.5 W 5 9 1007.1 - 0.0 - Partly cloudy 10 - - - -
23/04:30pm 31.7 S 2 4 1006.9 - 0.0 - Partly cloudy 10 - - - -
23/04:00pm 31.4 SE 5 14 1006.9 - 0.0 - Partly cloudy 10 - - - -
23/03:30pm 32.0 E 3 6 1007.0 - 0.0 - - 10 - - - -
23/03:00pm 31.6 SE 3 9 1007.1 F 0.0 Fine Partly cloudy 35 - - - -
23/02:30pm 31.7 SSE 4 8 1007.7 - 0.0 - - 10 - - - -
23/02:00pm 31.3 ESE 6 10 1008.2 - 0.0 - - 10 - - - -
23/01:30pm 31.0 ESE 5 9 1008.9 - 0.0 - Partly cloudy 10 - - - -
23/01:00pm 31.3 SSE 5 10 1009.5 - 0.0 - Partly cloudy 10 - - - -
23/12:30pm 29.6 SE 6 8 1010.0 - 0.0 - Partly cloudy 10 - - - -
23/12:00pm 29.5 E 7 12 1010.2 F 0.0 Fine Mostly cloudy 30 - - - -
23/11:30am 29.8 ESE 8 12 1010.7 - 0.0 - Partly cloudy 10 - - - -
23/11:00am 29.9 ESE 6 12 1011.1 - 0.0 - Mostly cloudy 10 - - - -
23/10:30am 28.8 E 8 12 1011.4 - 0.0 - Partly cloudy 10 - - - -
23/10:00am 28.4 E 7 10 1011.6 - 0.0 - Mostly clear 10 - - - -
23/09:30am 27.8 ESE 8 11 1011.6 - 0.0 - - 10 - - - -
23/09:00am 26.8 E 8 11 1011.3 R 0.0 Haze Partly cloudy 25 - - - -
23/08:30am 25.8 E 6 9 1011.4 - 0.0 - - 10 - - - -
23/08:00am 24.8 ESE 4 6 1011.4 - 0.0 - Mostly clear 10 - - - -
23/07:30am 23.3 ESE 3 4 1011.2 - 0.0 - Partly cloudy 10 - - - -
23/07:00am 22.7 CALM 0 0 1010.9 - 0.0 - Mostly clear 10 - - - -
23/06:30am 22.5 SSE 2 3 1010.5 - 0.0 - - 10 - - - -
23/06:00am 22.7 E 1 1 1009.9 F 0.0 Fine Partly cloudy 20 - - - -
23/05:30am 23.0 SSE 3 4 1009.6 - 0.0 - - 10 - - - -
23/05:00am 23.1 SE 2 3 1009.6 - 0.0 - - 10 - - - -
23/04:30am 23.1 SSE 2 3 1009.6 - 0.0 - - 10 - - - -
23/04:00am 23.1 SSE 2 3 1009.7 - 0.0 - - 10 - - - -
23/03:30am 23.2 S 3 4 1009.9 - 0.0 - - 10 - - - -
23/03:00am 23.2 SSE 2 3 1009.7 - 0.0 - - 10 - - - -
23/02:30am 23.3 S 2 3 1010.3 - 0.0 - - 10 - - - -
23/02:00am 23.4 CALM 0 1 1010.4 - 0.0 - - 10 - - - -
23/01:30am 23.7 CALM 0 0 1010.7 - 0.0 - - 10 - - - -
23/01:00am 23.8 S 1 2 1011.2 - 0.0 - - 10 - - - -
23/12:30am 24.3 ESE 2 3 1011.1 - 0.0 - - 10 - - - -
23/12:00am 24.8 E 3 4 1011.2 - 0.0 - - 10 - - - -
 
Date/Time
EST
Temp

°C
Wind Pressure Rain
since 9am
mm
Weather Cloud Vis
km
Sea
Height
m
Swell
Dir
 
Speed
knots
Gust
knots
hPa Trend Height
m
Period
s
Dir
22/11:30pm 25.0 ENE 2 3 1011.3 - 0.0 - - 10 - - - -
22/11:00pm 25.4 SE 1 2 1011.0 - 0.0 - - 10 - - - -
22/10:30pm 26.1 E 3 4 1010.9 - 0.0 - - 10 - - - -
22/10:00pm 26.4 ESE 2 3 1011.0 - 0.0 - - 10 - - - -
22/09:30pm 26.6 ESE 3 5 1010.9 - 0.0 - - 10 - - - -
22/09:00pm 27.0 ESE 3 3 1010.6 - 0.0 - Mostly clear 10 - - - -
22/08:30pm 27.3 SSW 1 2 1010.6 - 0.0 - - 10 - - - -
22/08:00pm 27.6 SSW 1 2 1010.0 - 0.0 - Partly cloudy 10 - - - -
22/07:30pm 27.8 WSW 3 4 1009.3 - 0.0 - Partly cloudy 10 - - - -
22/07:00pm 28.3 SW 3 6 1008.9 - 0.0 - Partly cloudy 10 - - - -

Other Formats:

Comma delimited format used in spreadsheet applications
http://www.bom.gov.au/fwo/IDQ60701/IDQ60701.94170.axf

JavaScript Object Notation format (JSON) in row-major order
http://www.bom.gov.au/fwo/IDQ60701/IDQ60701.94170.json